createdAt,value
2019-05-05T00:00:35.193Z,2.62
2019-05-05T00:02:34.626Z,3.15
2019-05-05T00:04:34.934Z,4.28
2019-05-05T00:06:09.759Z,3.25
2019-05-05T00:07:44.871Z,2.70
2019-05-05T00:09:19.543Z,3.17
2019-05-05T00:11:15.265Z,6.55
2019-05-05T00:12:59.976Z,3.45
2019-05-05T00:14:41.871Z,2.30
2019-05-05T00:16:39.273Z,2.58
2019-05-05T00:18:14.812Z,2.42
2019-05-05T00:19:49.515Z,4.20
2019-05-05T00:21:24.448Z,3.70
2019-05-05T00:22:59.146Z,2.52
2019-05-05T00:24:35.069Z,2.85
2019-05-05T00:26:10.875Z,6.28
2019-05-05T00:27:45.519Z,4.37
2019-05-05T00:29:20.526Z,3.62
2019-05-05T00:30:55.497Z,3.40
2019-05-05T00:32:30.138Z,2.90
2019-05-05T00:34:05.182Z,3.33
2019-05-05T00:35:40.299Z,2.70
2019-05-05T00:37:15.334Z,5.00
2019-05-05T00:38:50.072Z,4.00
2019-05-05T00:40:24.964Z,3.15
2019-05-05T00:41:59.585Z,4.72
2019-05-05T00:43:34.593Z,3.92
2019-05-05T00:45:09.534Z,3.42
2019-05-05T00:47:02.096Z,5.10
2019-05-05T00:48:44.524Z,2.62
2019-05-05T00:50:20.559Z,4.12
2019-05-05T00:51:55.205Z,3.45
2019-05-05T00:53:29.866Z,2.42
2019-05-05T00:55:05.210Z,1.92
2019-05-05T00:56:39.845Z,2.52
2019-05-05T00:58:14.556Z,2.10
2019-05-05T00:59:49.189Z,2.22
2019-05-05T01:01:41.354Z,2.55
2019-05-05T01:03:16.569Z,3.83
2019-05-05T01:05:19.368Z,3.72
2019-05-05T01:06:54.447Z,3.00
2019-05-05T01:08:29.648Z,3.60
2019-05-05T01:10:05.299Z,3.58
2019-05-05T01:11:39.925Z,3.30
2019-05-05T01:13:15.218Z,4.83
2019-05-05T01:14:49.848Z,3.05
2019-05-05T01:16:24.830Z,4.90
2019-05-05T01:18:02.078Z,3.42
2019-05-05T01:19:35.906Z,4.30
2019-05-05T01:21:10.546Z,2.02
2019-05-05T01:22:45.174Z,3.35
2019-05-05T01:24:19.812Z,3.05
2019-05-05T01:25:54.558Z,2.67
2019-05-05T01:27:29.177Z,2.77
2019-05-05T01:29:05.424Z,5.47
2019-05-05T01:30:42.160Z,3.35
2019-05-05T01:32:22.124Z,3.10
2019-05-05T01:34:27.798Z,2.47
2019-05-05T01:36:04.536Z,6.17
2019-05-05T01:37:51.006Z,2.70
2019-05-05T01:39:45.255Z,2.67
2019-05-05T01:41:31.743Z,3.15
2019-05-05T01:43:06.386Z,3.87
2019-05-05T01:44:41.020Z,3.08
2019-05-05T01:46:15.674Z,2.40
2019-05-05T01:47:50.300Z,5.35
2019-05-05T01:49:25.348Z,2.47
2019-05-05T01:51:00.071Z,2.60
2019-05-05T01:52:34.718Z,7.28
2019-05-05T01:54:09.348Z,7.03
2019-05-05T01:55:45.175Z,3.08
2019-05-05T01:57:20.223Z,3.10
2019-05-05T01:58:55.359Z,2.10
2019-05-05T02:00:30.008Z,2.77
2019-05-05T02:02:04.974Z,4.35
2019-05-05T02:03:39.978Z,3.58
2019-05-05T02:05:14.891Z,2.33
2019-05-05T02:06:49.604Z,3.08
2019-05-05T02:08:24.550Z,2.50
2019-05-05T02:09:59.335Z,2.87
2019-05-05T02:11:35.294Z,2.80
2019-05-05T02:13:10.170Z,2.83
2019-05-05T02:14:44.915Z,3.83
2019-05-05T02:16:19.939Z,5.40
2019-05-05T02:17:55.096Z,2.92
2019-05-05T02:19:29.784Z,4.22
2019-05-05T02:21:06.120Z,3.83
2019-05-05T02:22:40.742Z,4.90
2019-05-05T02:24:15.401Z,4.17
2019-05-05T02:25:50.109Z,3.60
2019-05-05T02:27:25.365Z,2.62
2019-05-05T02:29:14.127Z,5.05
2019-05-05T02:31:06.122Z,4.10
2019-05-05T02:32:45.381Z,4.22
2019-05-05T02:34:20.006Z,4.30
2019-05-05T02:35:55.618Z,2.70
2019-05-05T02:37:30.620Z,5.03
2019-05-05T02:39:08.975Z,3.92
2019-05-05T02:40:45.222Z,2.30
2019-05-05T02:42:24.763Z,2.80
2019-05-05T02:43:58.608Z,5.08
2019-05-05T02:45:49.106Z,5.20
2019-05-05T02:47:34.825Z,3.95
2019-05-05T02:49:10.432Z,4.12
2019-05-05T02:51:00.024Z,1.87
2019-05-05T02:52:34.521Z,3.77
2019-05-05T02:54:08.090Z,1.90
2019-05-05T02:55:44.234Z,2.10
2019-05-05T02:57:19.145Z,2.62
2019-05-05T02:58:56.062Z,5.65
2019-05-05T03:01:04.779Z,3.00
2019-05-05T03:02:39.248Z,3.60
2019-05-05T03:04:14.307Z,4.53
2019-05-05T03:05:49.118Z,4.03
2019-05-05T03:07:26.091Z,2.98
2019-05-05T03:09:01.290Z,2.40
2019-05-05T03:10:37.783Z,1.77
2019-05-05T03:12:14.770Z,2.30
2019-05-05T03:13:50.669Z,2.35
2019-05-05T03:15:46.724Z,2.42
2019-05-05T03:17:23.437Z,2.22
2019-05-05T03:18:58.444Z,4.95
2019-05-05T03:20:34.323Z,2.02
2019-05-05T03:22:10.590Z,2.67
2019-05-05T03:23:45.683Z,2.33
2019-05-05T03:25:20.388Z,2.17
2019-05-05T03:26:55.243Z,2.47
2019-05-05T03:28:40.708Z,4.22
2019-05-05T03:30:15.674Z,2.15
2019-05-05T03:31:51.097Z,2.50
2019-05-05T03:33:25.927Z,2.10
2019-05-05T03:35:00.660Z,2.87
2019-05-05T03:36:35.364Z,2.45
2019-05-05T03:38:10.071Z,3.45
2019-05-05T03:39:49.850Z,1.95
2019-05-05T03:41:56.071Z,3.37
2019-05-05T03:43:34.209Z,2.30
2019-05-05T03:45:19.580Z,2.10
2019-05-05T03:46:54.954Z,3.15
2019-05-05T03:48:29.669Z,2.05
2019-05-05T03:50:05.402Z,2.37
2019-05-05T03:51:40.173Z,3.47
2019-05-05T03:53:15.106Z,1.77
2019-05-05T03:54:49.828Z,1.87
2019-05-05T03:56:24.852Z,2.85
2019-05-05T03:57:59.767Z,2.45
2019-05-05T03:59:34.400Z,2.60
2019-05-05T04:01:34.719Z,2.00
2019-05-05T04:03:09.517Z,3.42
2019-05-05T04:04:47.514Z,2.75
2019-05-05T04:06:37.147Z,3.83
2019-05-05T04:08:14.369Z,4.28
2019-05-05T04:09:48.896Z,3.62
2019-05-05T04:11:23.701Z,3.12
2019-05-05T04:12:58.371Z,3.27
2019-05-05T04:14:34.741Z,3.10
2019-05-05T04:16:16.112Z,2.62
2019-05-05T04:18:19.115Z,2.40
2019-05-05T04:19:55.079Z,1.82
2019-05-05T04:21:33.762Z,2.72
2019-05-05T04:23:06.090Z,2.47
2019-05-05T04:24:40.728Z,2.90
2019-05-05T04:26:15.351Z,2.42
2019-05-05T04:27:50.002Z,5.22
2019-05-05T04:29:24.623Z,1.52
2019-05-05T04:30:59.305Z,2.35
2019-05-05T04:32:34.818Z,2.77
2019-05-05T04:34:09.579Z,3.52
2019-05-05T04:35:44.547Z,2.10
2019-05-05T04:37:19.318Z,2.30
2019-05-05T04:38:54.672Z,3.00
2019-05-05T04:40:29.413Z,2.35
2019-05-05T04:42:04.724Z,2.08
2019-05-05T04:43:39.672Z,3.70
2019-05-05T04:45:15.009Z,2.25
2019-05-05T04:46:54.469Z,2.37
2019-05-05T04:48:35.370Z,3.40
2019-05-05T04:50:18.344Z,3.23
2019-05-05T04:51:53.928Z,2.80
2019-05-05T04:53:47.786Z,2.87
2019-05-05T04:55:24.349Z,3.67
2019-05-05T04:56:59.720Z,2.20
2019-05-05T04:58:34.409Z,2.50
2019-05-05T05:00:09.503Z,3.87
2019-05-05T05:01:44.529Z,1.70
2019-05-05T05:03:38.185Z,3.87
2019-05-05T05:05:24.497Z,2.63
2019-05-05T05:06:59.515Z,1.80
2019-05-05T05:08:34.192Z,1.87
2019-05-05T05:10:09.006Z,4.57
2019-05-05T05:11:44.298Z,2.93
2019-05-05T05:13:19.092Z,1.43
2019-05-05T05:14:54.654Z,3.43
2019-05-05T05:16:29.448Z,1.23
2019-05-05T05:18:14.796Z,2.67
2019-05-05T05:19:50.674Z,2.90
2019-05-05T05:21:25.305Z,2.53
2019-05-05T05:22:59.936Z,2.33
2019-05-05T05:24:34.568Z,2.40
2019-05-05T05:26:09.213Z,3.03
2019-05-05T05:27:44.438Z,2.90
2019-05-05T05:29:19.141Z,2.23
2019-05-05T05:30:54.675Z,4.00
2019-05-05T05:32:30.281Z,3.37
2019-05-05T05:34:04.978Z,3.23
2019-05-05T05:35:39.596Z,3.10
2019-05-05T05:37:14.240Z,3.40
2019-05-05T05:38:50.812Z,2.03
2019-05-05T05:40:48.671Z,4.53
2019-05-05T05:42:24.168Z,1.90
2019-05-05T05:44:05.810Z,2.67
2019-05-05T05:45:49.568Z,3.80
2019-05-05T05:47:44.182Z,2.60
2019-05-05T05:49:40.977Z,4.37
2019-05-05T05:51:19.456Z,2.60
2019-05-05T05:52:54.276Z,3.10
2019-05-05T05:54:28.913Z,3.60
2019-05-05T05:56:04.322Z,3.07
2019-05-05T05:57:40.080Z,2.63
2019-05-05T05:59:14.716Z,1.97
2019-05-05T06:00:49.346Z,3.20
2019-05-05T06:02:24.285Z,3.17
2019-05-05T06:03:58.992Z,3.33
2019-05-05T06:05:34.532Z,3.47
2019-05-05T06:07:09.189Z,3.13
2019-05-05T06:08:44.138Z,2.77
2019-05-05T06:10:24.223Z,3.67
2019-05-05T06:11:55.277Z,2.67
2019-05-05T06:13:29.927Z,2.07
2019-05-05T06:15:05.000Z,3.93
2019-05-05T06:16:39.617Z,2.37
2019-05-05T06:18:14.336Z,3.07
2019-05-05T06:19:48.956Z,2.30
2019-05-05T06:21:24.316Z,3.53
2019-05-05T06:22:58.967Z,3.30
2019-05-05T06:24:34.592Z,2.30
2019-05-05T06:26:09.452Z,4.00
2019-05-05T06:27:44.602Z,2.30
2019-05-05T06:29:19.318Z,2.57
2019-05-05T06:30:54.910Z,2.20
2019-05-05T06:32:29.556Z,2.33
2019-05-05T06:34:04.201Z,2.77
2019-05-05T06:35:38.856Z,3.17
2019-05-05T06:37:14.499Z,2.30
2019-05-05T06:38:50.384Z,3.53
2019-05-05T06:40:48.355Z,2.70
2019-05-05T06:42:44.983Z,3.57
2019-05-05T06:44:28.472Z,3.23
2019-05-05T06:46:04.519Z,5.60
2019-05-05T06:47:41.945Z,2.63
2019-05-05T06:49:16.600Z,5.27
2019-05-05T06:50:51.252Z,3.93
2019-05-05T06:52:25.883Z,1.50
2019-05-05T06:54:00.638Z,2.43
2019-05-05T06:55:35.289Z,2.47
2019-05-05T06:57:09.932Z,2.00
2019-05-05T06:58:44.961Z,2.73
2019-05-05T07:00:19.649Z,3.60
2019-05-05T07:01:54.295Z,4.07
2019-05-05T07:03:28.928Z,2.13
2019-05-05T07:05:04.636Z,3.20
2019-05-05T07:06:51.777Z,2.30
2019-05-05T07:08:15.604Z,2.53
2019-05-05T07:09:50.245Z,3.67
2019-05-05T07:11:24.905Z,2.43
2019-05-05T07:12:59.505Z,2.60
2019-05-05T07:14:35.144Z,2.40
2019-05-05T07:16:12.305Z,2.90
2019-05-05T07:17:46.175Z,1.87
2019-05-05T07:19:20.814Z,3.07
2019-05-05T07:20:55.444Z,3.80
2019-05-05T07:22:30.460Z,5.67
2019-05-05T07:24:05.247Z,3.50
2019-05-05T07:25:43.228Z,2.23
2019-05-05T07:27:16.261Z,2.13
2019-05-05T07:28:50.893Z,2.67
2019-05-05T07:30:25.522Z,3.83
2019-05-05T07:32:00.265Z,1.80
2019-05-05T07:33:34.981Z,2.13
2019-05-05T07:35:28.707Z,2.73
2019-05-05T07:37:03.911Z,2.93
2019-05-05T07:38:38.757Z,3.30
2019-05-05T07:40:13.748Z,3.37
2019-05-05T07:41:48.376Z,2.93
2019-05-05T07:43:23.956Z,2.93
2019-05-05T07:44:58.717Z,2.10
2019-05-05T07:46:34.621Z,2.53
2019-05-05T07:48:09.523Z,3.13
2019-05-05T07:49:44.291Z,3.57
2019-05-05T07:51:18.977Z,2.50
2019-05-05T07:52:54.609Z,2.47
2019-05-05T07:54:29.431Z,3.07
2019-05-05T07:56:07.486Z,3.63
2019-05-05T07:57:40.486Z,2.97
2019-05-05T07:59:15.147Z,4.83
2019-05-05T08:00:49.789Z,3.00
2019-05-05T08:02:24.753Z,5.67
2019-05-05T08:04:00.455Z,2.43
2019-05-05T08:05:35.162Z,2.37
2019-05-05T08:07:09.815Z,1.77
2019-05-05T08:08:44.526Z,2.33
2019-05-05T08:10:19.250Z,2.73
2019-05-05T08:11:54.309Z,1.63
2019-05-05T08:13:28.989Z,2.43
2019-05-05T08:15:04.493Z,4.87
2019-05-05T08:17:01.427Z,1.73
2019-05-05T08:19:00.899Z,3.27
2019-05-05T08:20:38.755Z,2.63
2019-05-05T08:22:14.124Z,2.20
2019-05-05T08:24:09.608Z,1.40
2019-05-05T08:26:01.325Z,2.93
2019-05-05T08:27:58.685Z,2.63
2019-05-05T08:29:36.733Z,2.13
2019-05-05T08:31:19.237Z,2.00
2019-05-05T08:32:54.604Z,3.40
2019-05-05T08:34:29.380Z,2.13
2019-05-05T08:36:04.715Z,2.37
2019-05-05T08:37:39.493Z,1.40
2019-05-05T08:39:14.392Z,2.40
2019-05-05T08:40:49.064Z,1.57
2019-05-05T08:42:24.667Z,1.83
2019-05-05T08:43:59.461Z,2.00
2019-05-05T08:45:34.976Z,2.43
2019-05-05T08:47:10.896Z,1.67
2019-05-05T08:48:45.607Z,1.53
2019-05-05T08:50:20.284Z,2.00
2019-05-05T08:51:54.990Z,1.20
2019-05-05T08:53:41.663Z,1.73
2019-05-05T08:55:06.200Z,2.77
2019-05-05T08:56:40.821Z,1.47
2019-05-05T08:58:15.804Z,2.50
2019-05-05T08:59:50.446Z,2.70
2019-05-05T09:01:25.067Z,2.97
2019-05-05T09:02:59.749Z,1.57
2019-05-05T09:04:34.380Z,1.43
2019-05-05T09:06:09.049Z,3.23
2019-05-05T09:07:44.227Z,3.43
2019-05-05T09:09:18.912Z,2.97
2019-05-05T09:10:55.183Z,2.10
2019-05-05T09:12:30.060Z,1.50
2019-05-05T09:14:06.467Z,1.80
2019-05-05T09:15:41.085Z,3.03
2019-05-05T09:17:15.801Z,1.77
2019-05-05T09:19:04.205Z,2.97
2019-05-05T09:20:38.988Z,3.00
2019-05-05T09:22:14.062Z,2.07
2019-05-05T09:23:59.013Z,3.30
2019-05-05T09:25:44.707Z,1.87
2019-05-05T09:27:53.584Z,1.53
2019-05-05T09:29:36.436Z,2.50
2019-05-05T09:31:16.713Z,2.70
2019-05-05T09:32:51.348Z,2.20
2019-05-05T09:34:26.014Z,1.90
2019-05-05T09:36:00.846Z,2.73
2019-05-05T09:37:35.765Z,2.37
2019-05-05T09:39:10.499Z,1.33
2019-05-05T09:40:45.229Z,1.90
2019-05-05T09:42:20.177Z,3.60
2019-05-05T09:43:55.870Z,2.07
2019-05-05T09:45:30.505Z,1.60
2019-05-05T09:47:05.338Z,1.57
2019-05-05T09:48:39.976Z,2.20
2019-05-05T09:50:15.260Z,2.30
2019-05-05T09:51:49.906Z,1.80
2019-05-05T09:53:27.244Z,1.80
2019-05-05T09:55:01.055Z,2.40
2019-05-05T09:56:35.965Z,2.50
2019-05-05T09:58:10.600Z,1.33
2019-05-05T09:59:45.227Z,2.17
2019-05-05T10:01:19.866Z,1.40
2019-05-05T10:02:54.606Z,2.47
2019-05-05T10:04:30.848Z,1.73
2019-05-05T10:06:05.579Z,2.63
2019-05-05T10:07:40.637Z,1.10
2019-05-05T10:09:15.362Z,1.00
2019-05-05T10:10:50.046Z,1.57
2019-05-05T10:12:24.667Z,2.50
2019-05-05T10:13:59.304Z,1.43
2019-05-05T10:15:33.935Z,3.27
2019-05-05T10:17:08.575Z,1.40
2019-05-05T10:18:44.854Z,1.33
2019-05-05T10:20:19.693Z,1.03
2019-05-05T10:21:54.330Z,2.40
2019-05-05T10:23:30.851Z,1.63
2019-05-05T10:25:34.369Z,3.53
2019-05-05T10:27:09.186Z,1.87
2019-05-05T10:28:44.462Z,1.60
2019-05-05T10:30:19.139Z,1.20
2019-05-05T10:31:53.980Z,1.73
2019-05-05T10:33:28.592Z,0.93
2019-05-05T10:35:04.517Z,3.87
2019-05-05T10:36:40.820Z,3.50
2019-05-05T10:38:15.458Z,0.80
2019-05-05T10:39:52.035Z,2.00
2019-05-05T10:41:26.693Z,2.97
2019-05-05T10:43:01.331Z,1.67
2019-05-05T10:44:35.967Z,2.37
2019-05-05T10:46:10.605Z,2.73
2019-05-05T10:47:45.257Z,3.13
2019-05-05T10:49:19.917Z,1.53
2019-05-05T10:50:54.546Z,2.57
2019-05-05T10:52:29.335Z,1.90
2019-05-05T10:54:04.163Z,2.10
2019-05-05T10:55:38.885Z,1.27
2019-05-05T10:57:14.842Z,1.70
2019-05-05T10:58:49.926Z,1.87
2019-05-05T11:00:45.576Z,1.03
2019-05-05T11:02:20.223Z,1.97
2019-05-05T11:03:54.873Z,1.53
2019-05-05T11:05:29.503Z,1.77
2019-05-05T11:07:04.411Z,3.20
2019-05-05T11:08:39.128Z,3.27
2019-05-05T11:10:15.546Z,2.43
2019-05-05T11:11:50.176Z,3.20
2019-05-05T11:13:24.897Z,1.03
2019-05-05T11:14:59.678Z,1.70
2019-05-05T11:16:34.403Z,2.23
2019-05-05T11:18:09.317Z,1.47
2019-05-05T11:19:44.275Z,1.90
2019-05-05T11:21:19.061Z,1.13
2019-05-05T11:22:54.222Z,1.43
2019-05-05T11:24:28.953Z,1.23
2019-05-05T11:26:03.660Z,3.20
2019-05-05T11:27:38.295Z,1.57
2019-05-05T11:29:13.550Z,2.70
2019-05-05T11:30:48.749Z,3.17
2019-05-05T11:32:44.090Z,3.67
2019-05-05T11:34:25.536Z,2.07
2019-05-05T11:36:04.541Z,1.40
2019-05-05T11:37:39.336Z,1.77
2019-05-05T11:39:14.832Z,3.63
2019-05-05T11:40:49.570Z,1.70
2019-05-05T11:42:24.267Z,2.10
2019-05-05T11:43:58.933Z,2.20
2019-05-05T11:45:34.478Z,1.80
2019-05-05T11:47:09.228Z,3.63
2019-05-05T11:48:44.089Z,2.43
2019-05-05T11:50:18.922Z,2.00
2019-05-05T11:51:54.348Z,2.47
2019-05-05T11:53:30.133Z,1.67
2019-05-05T11:55:11.569Z,2.67
2019-05-05T11:56:41.295Z,2.77
2019-05-05T11:58:16.008Z,1.90
2019-05-05T11:59:51.015Z,1.67
2019-05-05T12:01:26.411Z,1.40
2019-05-05T12:03:01.041Z,1.10
2019-05-05T12:04:35.668Z,3.70
2019-05-05T12:06:10.430Z,5.10
2019-05-05T12:07:45.126Z,2.67
2019-05-05T12:09:26.925Z,1.63
2019-05-05T12:11:06.473Z,1.93
2019-05-05T12:12:41.145Z,8.43
2019-05-05T12:14:17.627Z,1.23
2019-05-05T12:15:58.754Z,2.97
2019-05-05T12:17:35.171Z,3.13
2019-05-05T12:19:13.710Z,1.20
2019-05-05T12:20:48.560Z,1.60
2019-05-05T12:22:23.639Z,1.43
2019-05-05T12:24:00.833Z,2.23
2019-05-05T12:26:04.745Z,3.23
2019-05-05T12:27:57.472Z,1.57
2019-05-05T12:29:40.152Z,1.37
2019-05-05T12:31:19.451Z,2.13
2019-05-05T12:32:55.327Z,1.53
2019-05-05T12:34:30.018Z,1.63
2019-05-05T12:36:05.039Z,2.40
2019-05-05T12:37:39.704Z,2.27
2019-05-05T12:39:15.041Z,2.40
2019-05-05T12:40:49.762Z,2.50
2019-05-05T12:42:24.469Z,2.80
2019-05-05T12:43:59.597Z,1.40
2019-05-05T12:45:35.981Z,1.07
2019-05-05T12:47:28.597Z,2.40
2019-05-05T12:49:04.958Z,3.57
2019-05-05T12:50:40.587Z,2.90
2019-05-05T12:52:16.261Z,2.83
2019-05-05T12:53:51.000Z,6.17
2019-05-05T12:55:39.144Z,3.63
2019-05-05T12:57:04.248Z,2.47
2019-05-05T12:58:38.456Z,2.57
2019-05-05T13:00:14.661Z,3.60
2019-05-05T13:01:50.342Z,2.27
2019-05-05T13:03:24.989Z,3.57
2019-05-05T13:04:59.658Z,3.30
2019-05-05T13:06:34.715Z,3.90
2019-05-05T13:08:09.437Z,4.83
2019-05-05T13:09:44.220Z,1.83
2019-05-05T13:11:20.234Z,4.50
2019-05-05T13:12:55.311Z,8.47
2019-05-05T13:14:29.952Z,4.70
2019-05-05T13:16:04.696Z,4.53
2019-05-05T13:17:39.347Z,2.47
2019-05-05T13:19:26.153Z,4.40
2019-05-05T13:21:07.582Z,3.63
2019-05-05T13:23:01.323Z,4.23
2019-05-05T13:24:57.650Z,3.67
2019-05-05T13:26:38.239Z,2.93
2019-05-05T13:28:14.529Z,1.93
2019-05-05T13:30:06.119Z,1.77
2019-05-05T13:31:44.065Z,3.93
2019-05-05T13:33:18.317Z,6.00
2019-05-05T13:34:54.589Z,4.10
2019-05-05T13:36:30.060Z,5.17
2019-05-05T13:38:04.703Z,4.40
2019-05-05T13:39:39.352Z,4.40
2019-05-05T13:41:16.149Z,5.90
2019-05-05T13:42:50.864Z,7.13
2019-05-05T13:44:43.586Z,4.57
2019-05-05T13:46:21.715Z,4.67
2019-05-05T13:47:56.337Z,4.00
2019-05-05T13:49:35.618Z,3.30
2019-05-05T13:51:10.456Z,5.00
2019-05-05T13:52:45.113Z,3.70
2019-05-05T13:54:19.772Z,2.47
2019-05-05T13:56:08.559Z,3.90
2019-05-05T13:57:30.821Z,3.37
2019-05-05T13:59:05.601Z,3.20
2019-05-05T14:00:40.588Z,4.53
2019-05-05T14:02:15.391Z,5.90
2019-05-05T14:03:50.304Z,4.07
2019-05-05T14:05:24.951Z,1.70
2019-05-05T14:06:59.921Z,2.97
2019-05-05T14:08:36.382Z,3.73
2019-05-05T14:10:11.425Z,4.13
2019-05-05T14:11:46.271Z,2.83
2019-05-05T14:13:20.925Z,4.50
2019-05-05T14:14:55.648Z,6.67
2019-05-05T14:16:31.361Z,5.13
2019-05-05T14:18:06.425Z,3.30
2019-05-05T14:19:41.255Z,6.40
2019-05-05T14:21:16.032Z,4.03
2019-05-05T14:22:51.315Z,6.50
2019-05-05T14:24:51.114Z,5.93
2019-05-05T14:26:28.451Z,3.63
2019-05-05T14:28:03.776Z,4.90
2019-05-05T14:29:52.916Z,2.17
2019-05-05T14:31:33.725Z,3.83
2019-05-05T14:33:11.617Z,2.47
2019-05-05T14:34:51.002Z,3.47
2019-05-05T14:36:38.397Z,3.43
2019-05-05T14:38:18.503Z,3.97
2019-05-05T14:39:54.532Z,5.60
2019-05-05T14:41:29.327Z,5.73
2019-05-05T14:43:04.495Z,4.60
2019-05-05T14:44:39.207Z,5.07
2019-05-05T14:46:14.502Z,3.67
2019-05-05T14:47:49.571Z,3.87
2019-05-05T14:49:24.703Z,2.57
2019-05-05T14:50:59.444Z,5.77
2019-05-05T14:52:34.099Z,3.77
2019-05-05T14:54:10.810Z,4.80
2019-05-05T14:55:45.558Z,3.67
2019-05-05T14:57:24.489Z,3.53
2019-05-05T14:58:59.326Z,4.03
2019-05-05T15:00:34.125Z,4.20
2019-05-05T15:02:08.774Z,6.67
2019-05-05T15:03:44.459Z,2.93
2019-05-05T15:05:37.264Z,3.10
2019-05-05T15:07:24.428Z,3.20
2019-05-05T15:09:09.312Z,6.40
2019-05-05T15:10:54.712Z,4.60
2019-05-05T15:12:38.544Z,4.47
2019-05-05T15:14:13.847Z,5.97
2019-05-05T15:15:48.655Z,6.30
2019-05-05T15:17:24.612Z,5.83
2019-05-05T15:18:59.418Z,7.67
2019-05-05T15:20:36.511Z,4.77
2019-05-05T15:22:10.467Z,7.23
2019-05-05T15:23:45.092Z,6.07
2019-05-05T15:25:19.771Z,5.77
2019-05-05T15:26:55.120Z,7.67
2019-05-05T15:28:29.920Z,4.53
2019-05-05T15:30:05.182Z,3.67
2019-05-05T15:31:39.838Z,5.37
2019-05-05T15:33:14.596Z,6.20
2019-05-05T15:34:49.251Z,5.67
2019-05-05T15:36:24.963Z,6.07
2019-05-05T15:37:59.658Z,6.03
2019-05-05T15:39:34.382Z,6.53
2019-05-05T15:41:09.174Z,6.53
2019-05-05T15:42:44.082Z,6.73
2019-05-05T15:44:19.756Z,4.80
2019-05-05T15:45:54.584Z,6.70
2019-05-05T15:47:29.677Z,6.43
2019-05-05T15:49:04.396Z,7.43
2019-05-05T15:50:39.193Z,7.13
2019-05-05T15:52:13.881Z,5.83
2019-05-05T15:53:54.339Z,8.03
2019-05-05T15:55:29.568Z,5.13
2019-05-05T15:57:07.842Z,5.37
2019-05-05T15:58:40.657Z,5.93
2019-05-05T16:00:15.420Z,4.33
2019-05-05T16:01:50.083Z,8.60
2019-05-05T16:03:24.736Z,4.37
2019-05-05T16:04:59.523Z,6.63
2019-05-05T16:06:34.539Z,5.90
2019-05-05T16:08:09.330Z,6.33
2019-05-05T16:09:46.748Z,5.97
2019-05-05T16:11:20.416Z,5.77
2019-05-05T16:12:55.064Z,9.47
2019-05-05T16:14:36.915Z,9.13
2019-05-05T16:16:24.651Z,5.33
2019-05-05T16:18:17.116Z,5.73
2019-05-05T16:19:55.569Z,7.50
2019-05-05T16:21:50.563Z,6.87
2019-05-05T16:23:29.586Z,7.87
2019-05-05T16:25:14.107Z,6.73
2019-05-05T16:26:49.171Z,6.57
2019-05-05T16:28:25.197Z,5.43
2019-05-05T16:29:59.937Z,9.13
2019-05-05T16:31:34.599Z,5.33
2019-05-05T16:33:09.377Z,9.37
2019-05-05T16:34:44.042Z,6.40
2019-05-05T16:36:18.763Z,5.27
2019-05-05T16:37:54.524Z,5.17
2019-05-05T16:39:29.236Z,6.67
2019-05-05T16:41:03.954Z,6.47
2019-05-05T16:42:38.676Z,7.77
2019-05-05T16:44:14.124Z,7.57
2019-05-05T16:45:49.916Z,6.50
2019-05-05T16:47:24.575Z,5.80
2019-05-05T16:48:59.363Z,8.10
2019-05-05T16:50:36.831Z,9.83
2019-05-05T16:52:17.329Z,5.73
2019-05-05T16:53:53.880Z,5.87
2019-05-05T16:55:34.472Z,6.03
2019-05-05T16:57:09.153Z,5.90
2019-05-05T16:58:45.119Z,7.03
2019-05-05T17:00:21.654Z,3.70
2019-05-05T17:01:56.393Z,7.03
2019-05-05T17:03:31.060Z,4.93
2019-05-05T17:05:06.275Z,5.90
2019-05-05T17:06:40.948Z,8.50
2019-05-05T17:08:15.608Z,9.20
2019-05-05T17:10:01.553Z,5.63
2019-05-05T17:11:37.949Z,5.93
2019-05-05T17:13:30.516Z,5.77
2019-05-05T17:15:37.362Z,5.93
2019-05-05T17:17:31.102Z,4.83
2019-05-05T17:19:14.065Z,7.00
2019-05-05T17:20:54.134Z,6.40
2019-05-05T17:22:39.070Z,8.13
2019-05-05T17:24:14.132Z,6.03
2019-05-05T17:25:48.930Z,6.57
2019-05-05T17:27:23.764Z,3.67
2019-05-05T17:28:58.479Z,8.00
2019-05-05T17:30:34.114Z,5.83
2019-05-05T17:32:09.051Z,4.70
2019-05-05T17:33:44.253Z,7.33
2019-05-05T17:35:19.889Z,4.67
2019-05-05T17:36:54.536Z,8.53
2019-05-05T17:38:29.179Z,7.00
2019-05-05T17:40:11.136Z,7.87
2019-05-05T17:42:03.911Z,6.47
2019-05-05T17:43:54.222Z,5.53
2019-05-05T17:45:47.925Z,8.80
2019-05-05T17:47:41.581Z,8.23
2019-05-05T17:49:27.985Z,4.83
2019-05-05T17:51:09.220Z,6.93
2019-05-05T17:52:50.661Z,6.53
2019-05-05T17:54:50.550Z,4.83
2019-05-05T17:56:25.181Z,8.10
2019-05-05T17:58:02.607Z,5.47
2019-05-05T17:59:36.244Z,8.47
2019-05-05T18:01:10.941Z,5.87
2019-05-05T18:02:45.572Z,6.33
2019-05-05T18:04:20.439Z,5.47
2019-05-05T18:06:14.340Z,6.03
2019-05-05T18:07:49.638Z,5.10
2019-05-05T18:09:49.533Z,5.87
2019-05-05T18:11:36.503Z,10.27
2019-05-05T18:13:35.050Z,5.97
2019-05-05T18:15:35.517Z,5.97
2019-05-05T18:17:10.305Z,6.47
2019-05-05T18:18:45.072Z,7.63
2019-05-05T18:20:19.729Z,6.67
2019-05-05T18:21:54.841Z,5.10
2019-05-05T18:23:29.663Z,7.87
2019-05-05T18:25:04.590Z,6.70
2019-05-05T18:26:39.206Z,5.13
2019-05-05T18:28:19.649Z,7.83
2019-05-05T18:29:51.125Z,7.07
2019-05-05T18:31:25.798Z,7.93
2019-05-05T18:33:00.409Z,8.47
2019-05-05T18:34:35.027Z,6.47
2019-05-05T18:36:09.675Z,7.10
2019-05-05T18:37:44.310Z,9.33
2019-05-05T18:39:19.014Z,8.37
2019-05-05T18:40:54.942Z,8.00
2019-05-05T18:42:29.584Z,7.63
2019-05-05T18:44:15.192Z,5.80
2019-05-05T18:46:01.002Z,6.13
2019-05-05T18:47:35.649Z,5.23
2019-05-05T18:49:10.287Z,6.97
2019-05-05T18:50:44.914Z,5.77
2019-05-05T18:52:19.652Z,5.83
2019-05-05T18:53:55.062Z,6.23
2019-05-05T18:55:29.823Z,7.63
2019-05-05T18:57:05.361Z,7.40
2019-05-05T18:58:40.003Z,7.77
2019-05-05T19:00:21.279Z,10.70
2019-05-05T19:02:08.782Z,6.93
2019-05-05T19:04:04.062Z,6.53
2019-05-05T19:05:53.525Z,4.87
2019-05-05T19:07:38.798Z,5.77
2019-05-05T19:09:17.918Z,5.70
2019-05-05T19:10:54.182Z,6.07
2019-05-05T19:12:29.008Z,7.03
2019-05-05T19:14:03.734Z,10.13
2019-05-05T19:15:38.427Z,6.07
2019-05-05T19:17:14.196Z,6.30
2019-05-05T19:18:48.861Z,6.57
2019-05-05T19:20:44.473Z,8.37
2019-05-05T19:22:18.928Z,6.23
2019-05-05T19:23:54.283Z,5.70
2019-05-05T19:25:29.164Z,7.77
2019-05-05T19:27:03.814Z,7.97
2019-05-05T19:28:44.392Z,6.87
2019-05-05T19:30:16.267Z,7.03
2019-05-05T19:31:50.901Z,5.03
2019-05-05T19:33:25.544Z,5.03
2019-05-05T19:35:00.206Z,9.77
2019-05-05T19:36:34.841Z,5.40
2019-05-05T19:38:09.430Z,6.70
2019-05-05T19:39:44.083Z,5.60
2019-05-05T19:41:18.965Z,7.90
2019-05-05T19:42:53.970Z,8.00
2019-05-05T19:44:28.626Z,6.60
2019-05-05T19:46:05.887Z,5.90
2019-05-05T19:47:40.784Z,5.37
2019-05-05T19:49:16.675Z,7.73
2019-05-05T19:50:54.655Z,6.63
2019-05-05T19:52:29.401Z,6.40
2019-05-05T19:54:04.124Z,4.50
2019-05-05T19:55:38.824Z,9.20
2019-05-05T19:57:14.447Z,5.00
2019-05-05T19:58:59.307Z,7.07
2019-05-05T20:00:26.299Z,7.73
2019-05-05T20:02:03.441Z,4.77
2019-05-05T20:03:37.927Z,5.50
2019-05-05T20:05:13.789Z,8.87
2019-05-05T20:06:48.524Z,6.37
2019-05-05T20:08:24.075Z,6.87
2019-05-05T20:12:26.706Z,7.97
2019-05-05T20:14:08.549Z,8.67
2019-05-05T20:15:44.336Z,10.07
2019-05-05T20:17:27.263Z,5.70
2019-05-05T20:19:04.075Z,6.30
2019-05-05T20:20:38.258Z,7.43
2019-05-05T20:22:14.639Z,7.10
2019-05-05T20:23:49.530Z,4.77
2019-05-05T20:25:24.522Z,5.17
2019-05-05T20:27:00.386Z,8.07
2019-05-05T20:28:35.092Z,5.87
2019-05-05T20:30:09.966Z,8.47
2019-05-05T20:31:44.772Z,9.03
2019-05-05T20:33:33.690Z,5.57
2019-05-05T20:35:16.814Z,5.83
2019-05-05T20:37:08.252Z,7.07
2019-05-05T20:38:45.381Z,10.23
2019-05-05T20:40:24.335Z,6.40
2019-05-05T20:41:58.294Z,12.83
2019-05-05T20:43:32.932Z,4.40
2019-05-05T20:45:09.401Z,7.90
2019-05-05T20:46:44.101Z,4.80
2019-05-05T20:48:18.746Z,6.23
2019-05-05T20:49:54.009Z,7.00
2019-05-05T20:51:28.723Z,7.07
2019-05-05T20:53:04.854Z,7.20
2019-05-05T20:54:39.706Z,3.97
2019-05-05T20:56:15.018Z,6.73
2019-05-05T20:57:50.677Z,7.73
2019-05-05T20:59:30.657Z,9.40
2019-05-05T21:01:01.746Z,9.87
2019-05-05T21:02:36.667Z,8.80
2019-05-05T21:04:11.292Z,7.33
2019-05-05T21:05:45.929Z,9.70
2019-05-05T21:07:23.586Z,8.40
2019-05-05T21:08:56.920Z,6.53
2019-05-05T21:10:31.579Z,6.93
2019-05-05T21:12:07.311Z,8.40
2019-05-05T21:13:41.975Z,9.13
2019-05-05T21:15:16.627Z,5.90
2019-05-05T21:16:51.300Z,5.13
2019-05-05T21:18:25.937Z,7.60
2019-05-05T21:20:00.592Z,6.43
2019-05-05T21:21:36.929Z,6.50
2019-05-05T21:23:18.487Z,8.37
2019-05-05T21:24:54.233Z,7.17
2019-05-05T21:27:00.571Z,7.03
2019-05-05T21:28:35.261Z,6.40
2019-05-05T21:30:10.279Z,5.57
2019-05-05T21:31:45.343Z,6.10
2019-05-05T21:33:19.970Z,7.77
2019-05-05T21:34:54.609Z,7.47
2019-05-05T21:36:29.233Z,6.57
2019-05-05T21:38:04.760Z,6.27
2019-05-05T21:39:39.543Z,9.53
2019-05-05T21:41:14.181Z,6.90